Time;durP1;ratioP1;P1;durP2;ratioP2;P2;SDS_P1;SDS_P2;PMS_P1;PMS_P2;Temp;Humidity;BMP_temperature;BMP_pressure;BME280_temperature;BME280_humidity;BME280_pressure;Samples;Min_cycle;Max_cycle;Signal;HPM_P1;HPM_P2
2021/11/19 00:01:58;;;;;;;24.45;13.95;;;;;;;8.74;100.00;101304.75;4970598;28;20049;-83
2021/11/19 00:04:27;;;;;;;22.33;13.32;;;;;;;8.80;100.00;101310.00;4975523;28;20573;-81
2021/11/19 00:06:57;;;;;;;20.90;12.48;;;;;;;8.82;100.00;101315.28;4976767;28;20429;-80
2021/11/19 00:09:27;;;;;;;21.25;12.60;;;;;;;8.82;100.00;101310.00;5004748;28;20458;-81
2021/11/19 00:11:54;;;;;;;20.30;13.25;;;;;;;8.85;100.00;101305.63;5009605;28;20042;-80
2021/11/19 00:14:23;;;;;;;24.38;11.82;;;;;;;8.84;100.00;101300.38;4974707;28;20140;-82
2021/11/19 00:17:08;;;;;;;21.17;11.35;;;;;;;8.88;100.00;101302.09;4991813;28;20217;-82
2021/11/19 00:19:39;;;;;;;18.90;12.27;;;;;;;8.88;100.00;101297.69;4992338;28;20096;-81
2021/11/19 00:22:07;;;;;;;22.70;12.23;;;;;;;8.90;100.00;101297.69;4971722;28;20446;-82
2021/11/19 00:24:38;;;;;;;22.52;11.88;;;;;;;8.90;100.00;101308.22;4966375;28;20034;-82
2021/11/19 00:27:17;;;;;;;19.40;12.43;;;;;;;8.91;100.00;101307.34;4991207;28;20209;-81
2021/11/19 00:29:46;;;;;;;18.20;11.18;;;;;;;8.99;100.00;101306.44;4996175;28;20096;-81
2021/11/19 00:32:13;;;;;;;18.73;12.15;;;;;;;8.93;100.00;101306.47;4987656;28;20061;-81
2021/11/19 00:34:41;;;;;;;22.45;11.40;;;;;;;8.95;100.00;101295.91;5000578;28;20125;-81
2021/11/19 00:37:08;;;;;;;20.58;11.30;;;;;;;8.97;100.00;101289.75;4998034;28;20380;-81
2021/11/19 00:39:36;;;;;;;16.90;11.07;;;;;;;9.01;100.00;101290.63;4993819;28;20041;-81
2021/11/19 00:42:04;;;;;;;21.20;11.98;;;;;;;9.00;100.00;101279.22;4988403;28;20088;-81
2021/11/19 00:44:30;;;;;;;24.98;11.48;;;;;;;9.02;100.00;101290.63;4988905;28;20034;-81
2021/11/19 00:46:58;;;;;;;19.55;11.15;;;;;;;9.03;100.00;101292.38;4983902;28;20045;-83
2021/11/19 00:49:30;;;;;;;18.85;12.00;;;;;;;9.03;100.00;101286.22;4983517;28;20112;-81
2021/11/19 00:51:58;;;;;;;18.65;11.80;;;;;;;9.01;100.00;101293.28;5004767;28;20053;-82
2021/11/19 00:54:26;;;;;;;22.17;11.52;;;;;;;9.07;100.00;101293.22;4981918;28;20038;-82
2021/11/19 00:56:57;;;;;;;19.42;12.32;;;;;;;9.06;100.00;101290.59;4985334;28;20057;-82
2021/11/19 00:59:27;;;;;;;21.35;12.13;;;;;;;9.09;100.00;101285.34;4991102;28;20053;-82
2021/11/19 01:02:06;;;;;;;20.42;12.18;;;;;;;9.10;100.00;101295.88;4981729;28;20507;-82
2021/11/19 01:04:34;;;;;;;21.73;12.75;;;;;;;9.16;100.00;101294.94;4995799;28;20093;-81
2021/11/19 01:07:01;;;;;;;23.48;12.95;;;;;;;9.16;100.00;101302.84;5011143;28;20099;-81
2021/11/19 01:09:30;;;;;;;22.73;12.23;;;;;;;9.17;100.00;101297.59;5007741;28;20044;-82
2021/11/19 01:11:59;;;;;;;22.65;12.45;;;;;;;9.17;100.00;101289.69;4977216;28;20049;-84
2021/11/19 01:14:41;;;;;;;20.67;12.98;;;;;;;9.16;100.00;101294.94;5011551;28;20052;-84
2021/11/19 01:17:16;;;;;;;20.42;11.88;;;;;;;9.18;100.00;101295.84;4996393;28;20055;-85
2021/11/19 01:20:00;;;;;;;23.48;13.23;;;;;;;9.23;100.00;101288.75;4992309;23;20042;-82
2021/11/19 01:22:30;;;;;;;24.25;12.98;;;;;;;9.25;100.00;101292.28;4998199;28;20058;-82
2021/11/19 01:24:57;;;;;;;22.85;12.95;;;;;;;9.26;100.00;101301.94;4990039;28;20042;-82
2021/11/19 01:27:25;;;;;;;27.02;13.48;;;;;;;9.23;100.00;101307.22;5022076;28;20041;-82
2021/11/19 01:29:52;;;;;;;24.98;13.55;;;;;;;9.24;100.00;101306.31;5007518;28;20045;-81
2021/11/19 01:32:22;;;;;;;23.52;13.05;;;;;;;9.25;100.00;101314.25;5035097;28;20044;-82
2021/11/19 01:34:49;;;;;;;22.25;12.90;;;;;;;9.23;100.00;101310.72;5017661;28;20041;-81
2021/11/19 01:37:16;;;;;;;24.63;12.38;;;;;;;9.29;100.00;101315.09;5000972;28;20053;-81
2021/11/19 01:39:43;;;;;;;21.60;13.85;;;;;;;9.34;100.00;101313.34;5002372;28;20049;-81
2021/11/19 01:42:21;;;;;;;21.92;13.52;;;;;;;9.27;100.00;101317.75;4994234;28;20044;-81
2021/11/19 01:45:17;;;;;;;22.05;13.38;;;;;;;9.25;100.00;101319.53;4982632;28;20045;-81
2021/11/19 01:47:46;;;;;;;22.02;12.27;;;;;;;9.29;100.00;101312.47;4979368;28;20092;-80
2021/11/19 01:50:28;;;;;;;19.30;11.93;;;;;;;9.28;100.00;101311.59;5023073;28;20041;-81
2021/11/19 01:53:01;;;;;;;23.33;12.07;;;;;;;9.33;100.00;101316.81;5022613;28;20051;-81
2021/11/19 01:55:33;;;;;;;20.00;11.85;;;;;;;9.31;100.00;101308.06;5014632;28;20123;-81
2021/11/19 01:58:05;;;;;;;23.20;12.48;;;;;;;9.37;100.00;101313.31;5007237;28;20445;-81
2021/11/19 02:00:38;;;;;;;21.83;12.27;;;;;;;9.35;100.00;101304.53;4989707;28;20091;-81
2021/11/19 02:03:07;;;;;;;21.20;12.48;;;;;;;9.37;100.00;101293.97;4994762;28;20337;-80
2021/11/19 02:05:41;;;;;;;19.52;11.52;;;;;;;9.35;100.00;101291.34;4979125;28;20491;-81
2021/11/19 02:08:12;;;;;;;23.60;11.55;;;;;;;9.33;100.00;101298.38;4963104;28;20096;-81
2021/11/19 02:10:59;;;;;;;21.48;12.35;;;;;;;9.32;100.00;101300.13;4996732;28;20053;-82
2021/11/19 02:13:53;;;;;;;19.08;11.40;;;;;;;9.34;100.00;101296.63;4996685;28;20049;-81
2021/11/19 02:16:26;;;;;;;18.70;10.82;;;;;;;9.34;100.00;101301.91;5015201;28;20430;-81
2021/11/19 02:19:03;;;;;;;20.48;11.85;;;;;;;9.37;100.00;101297.50;5013908;28;20462;-82
2021/11/19 02:21:36;;;;;;;19.00;10.90;;;;;;;9.38;100.00;101299.22;5005624;28;20076;-82
2021/11/19 02:24:21;;;;;;;17.40;10.30;;;;;;;9.42;100.00;101302.75;4993560;28;20049;-83
2021/11/19 02:27:06;;;;;;;21.27;10.23;;;;;;;9.44;100.00;101299.22;4992678;28;20041;-84
2021/11/19 02:29:42;;;;;;;19.90;11.10;;;;;;;9.45;100.00;101303.59;4997272;28;20053;-83
2021/11/19 02:33:05;;;;;;;17.80;10.02;;;;;;;9.40;100.00;101302.72;5019402;28;20045;-83
2021/11/19 02:35:37;;;;;;;16.33;10.55;;;;;;;9.48;100.00;101305.34;5022680;28;20041;-83
2021/11/19 02:38:07;;;;;;;18.02;10.43;;;;;;;9.45;100.00;101305.34;5011738;28;20446;-82
2021/11/19 02:40:36;;;;;;;19.40;12.18;;;;;;;9.47;100.00;101308.84;4989987;28;20064;-83
2021/11/19 02:43:10;;;;;;;19.65;11.38;;;;;;;9.47;100.00;101300.94;5032714;28;20048;-83
2021/11/19 02:45:40;;;;;;;18.42;10.70;;;;;;;9.50;100.00;101287.72;4984752;28;20420;-83
2021/11/19 02:48:11;;;;;;;20.65;11.13;;;;;;;9.52;100.00;101293.91;5018831;28;20128;-82
2021/11/19 02:50:38;;;;;;;17.95;10.10;;;;;;;9.54;100.00;101297.38;5012707;28;20045;-83
2021/11/19 02:53:06;;;;;;;17.98;10.85;;;;;;;9.55;100.00;101297.38;4996404;28;20324;-83
2021/11/19 02:55:38;;;;;;;16.15;10.27;;;;;;;9.60;100.00;101284.16;4995142;28;20033;-82
2021/11/19 02:58:07;;;;;;;17.85;10.38;;;;;;;9.54;100.00;101298.25;4994366;28;20050;-82
2021/11/19 03:00:51;;;;;;;15.13;9.70;;;;;;;9.54;100.00;101302.66;4980519;28;20099;-83
2021/11/19 03:03:18;;;;;;;16.92;9.48;;;;;;;9.53;100.00;101298.28;4993512;28;20052;-82
2021/11/19 03:05:45;;;;;;;12.80;8.18;;;;;;;9.61;100.00;101306.16;4999605;28;20041;-82
2021/11/19 03:08:12;;;;;;;13.52;8.80;;;;;;;9.54;100.00;101300.03;4992782;28;20561;-82
2021/11/19 03:10:43;;;;;;;13.73;9.13;;;;;;;9.62;100.00;101297.34;5003643;28;20041;-82
2021/11/19 03:13:10;;;;;;;13.05;8.63;;;;;;;9.63;100.00;101294.69;5008298;28;20088;-83
2021/11/19 03:15:42;;;;;;;15.05;8.48;;;;;;;9.68;100.00;101286.75;5010078;28;20418;-83
2021/11/19 03:18:11;;;;;;;14.00;8.13;;;;;;;9.65;100.00;101297.31;4998295;28;20041;-82
2021/11/19 03:20:38;;;;;;;12.43;7.75;;;;;;;9.70;100.00;101300.81;5017973;28;20041;-82
2021/11/19 03:23:05;;;;;;;12.88;7.80;;;;;;;9.79;100.00;101298.09;5031724;28;20111;-83
2021/11/19 03:25:37;;;;;;;12.93;7.53;;;;;;;9.74;100.00;101291.97;4998666;28;20445;-83
2021/11/19 03:28:06;;;;;;;11.65;7.45;;;;;;;9.78;100.00;101291.09;5011559;28;20473;-83
2021/11/19 03:30:33;;;;;;;10.75;7.03;;;;;;;9.87;100.00;101301.56;4988655;28;20052;-82
2021/11/19 03:33:00;;;;;;;10.00;6.55;;;;;;;9.85;100.00;101298.06;4979752;28;20636;-83
2021/11/19 03:35:28;;;;;;;10.73;6.43;;;;;;;9.86;100.00;101289.25;5014645;28;20080;-82
2021/11/19 03:37:56;;;;;;;10.98;6.20;;;;;;;9.88;100.00;101295.41;5042350;28;20076;-82
2021/11/19 03:40:27;;;;;;;10.10;6.07;;;;;;;9.87;100.00;101291.00;4999942;28;20043;-83
2021/11/19 03:42:54;;;;;;;9.10;6.10;;;;;;;9.88;100.00;101284.84;5018186;28;20100;-82
2021/11/19 03:45:39;;;;;;;10.48;6.18;;;;;;;9.95;100.00;101285.69;5020270;28;20080;-83
2021/11/19 03:48:07;;;;;;;10.10;6.05;;;;;;;9.99;100.00;101295.31;4983827;28;20114;-83
2021/11/19 03:50:41;;;;;;;8.30;5.97;;;;;;;9.98;100.00;101280.38;4989610;28;20049;-83
2021/11/19 03:53:09;;;;;;;8.48;5.22;;;;;;;10.01;100.00;101290.91;4999620;28;20049;-83
2021/11/19 03:55:37;;;;;;;8.60;5.75;;;;;;;10.01;100.00;101291.78;4989677;28;20047;-83
2021/11/19 03:58:05;;;;;;;9.25;5.53;;;;;;;10.10;100.00;101285.56;5011024;28;20049;-82
2021/11/19 04:00:39;;;;;;;10.02;5.18;;;;;;;10.03;100.00;101282.09;5012234;28;20442;-83
2021/11/19 04:03:07;;;;;;;7.53;5.45;;;;;;;10.04;100.00;101281.19;5012709;28;20557;-83
2021/11/19 04:05:34;;;;;;;8.02;5.63;;;;;;;10.07;100.00;101293.47;5015067;28;20486;-83
2021/11/19 04:08:01;;;;;;;6.88;4.82;;;;;;;10.06;100.00;101295.25;4987799;28;20045;-84
2021/11/19 04:10:28;;;;;;;7.90;4.93;;;;;;;10.07;100.00;101294.34;5014926;28;20045;-84
2021/11/19 04:12:55;;;;;;;7.47;4.80;;;;;;;10.09;100.00;101297.88;5003199;28;20552;-84
2021/11/19 04:15:34;;;;;;;8.27;5.07;;;;;;;10.13;100.00;101296.97;4986524;28;20049;-82
2021/11/19 04:18:01;;;;;;;5.75;4.40;;;;;;;10.09;100.00;101300.53;4996213;28;20041;-82
2021/11/19 04:20:28;;;;;;;9.23;5.90;;;;;;;10.20;100.00;101294.28;5029386;28;20041;-82
2021/11/19 04:22:54;;;;;;;6.93;4.55;;;;;;;10.14;100.00;101295.19;5012889;28;20041;-83
2021/11/19 04:25:23;;;;;;;6.22;4.47;;;;;;;10.16;100.00;101302.19;4995832;28;20044;-85
2021/11/19 04:27:51;;;;;;;6.82;4.97;;;;;;;10.12;100.00;101305.78;5016407;28;20045;-83
2021/11/19 04:30:26;;;;;;;5.80;4.22;;;;;;;10.14;100.00;101321.59;4982878;28;20064;-83
2021/11/19 04:32:54;;;;;;;7.82;5.07;;;;;;;10.23;100.00;101305.69;4999064;28;20466;-82
2021/11/19 04:35:21;;;;;;;7.60;5.00;;;;;;;10.22;100.00;101308.31;5019210;28;20045;-83
2021/11/19 04:37:49;;;;;;;8.25;5.45;;;;;;;10.23;100.00;101308.34;4999015;28;20042;-82
2021/11/19 04:40:17;;;;;;;7.18;4.78;;;;;;;10.29;100.00;101312.72;4997680;28;20041;-85
2021/11/19 04:42:45;;;;;;;7.05;4.53;;;;;;;10.28;100.00;101316.25;4999797;28;20052;-83
2021/11/19 04:45:14;;;;;;;7.22;5.18;;;;;;;10.26;100.00;101312.75;5014858;28;20653;-85
2021/11/19 04:47:41;;;;;;;7.25;5.03;;;;;;;10.22;100.00;101308.31;5021201;28;20056;-84
2021/11/19 04:50:11;;;;;;;9.50;5.03;;;;;;;10.26;100.00;101326.81;5011731;28;20047;-83
2021/11/19 04:52:37;;;;;;;9.38;4.93;;;;;;;10.24;100.00;101323.28;5022773;28;20455;-84
2021/11/19 04:55:06;;;;;;;10.05;6.85;;;;;;;10.32;100.00;101324.09;5030063;28;20030;-84
2021/11/19 04:57:33;;;;;;;11.43;8.40;;;;;;;10.26;100.00;101321.53;5013913;28;20037;-85
2021/11/19 05:00:00;;;;;;;10.48;7.00;;;;;;;10.27;100.00;101322.41;5011221;28;20050;-85
2021/11/19 05:02:27;;;;;;;8.55;6.43;;;;;;;10.25;100.00;101322.41;4999180;28;20501;-83
2021/11/19 05:04:54;;;;;;;7.80;4.93;;;;;;;10.32;100.00;101313.53;5010864;28;20120;-83
2021/11/19 05:07:20;;;;;;;8.70;4.88;;;;;;;10.36;100.00;101319.69;5009179;28;20045;-83
2021/11/19 05:09:47;;;;;;;7.05;4.38;;;;;;;10.32;100.00;101317.94;5031954;28;20637;-84
2021/11/19 05:12:34;;;;;;;6.07;4.30;;;;;;;10.32;100.00;101307.38;4998634;28;20045;-82
2021/11/19 05:15:01;;;;;;;6.57;4.45;;;;;;;10.32;100.00;101313.53;5000311;28;20057;-83
2021/11/19 05:17:28;;;;;;;6.95;4.47;;;;;;;10.36;100.00;101314.41;5014413;28;20580;-83
2021/11/19 05:19:55;;;;;;;6.15;4.18;;;;;;;10.27;100.00;101315.38;4996948;28;20060;-84
2021/11/19 05:22:21;;;;;;;8.35;4.80;;;;;;;10.30;100.00;101311.81;5014259;28;20426;-85
2021/11/19 05:24:49;;;;;;;10.77;7.38;;;;;;;10.32;100.00;101315.31;5013686;28;20509;-84
2021/11/19 05:27:17;;;;;;;7.28;4.80;;;;;;;10.38;100.00;101320.53;5027725;28;20042;-84
2021/11/19 05:29:44;;;;;;;8.05;4.90;;;;;;;10.34;100.00;101313.53;5012672;28;20490;-83
2021/11/19 05:32:10;;;;;;;8.32;5.22;;;;;;;10.31;100.00;101308.28;5015030;28;20513;-83
2021/11/19 05:34:38;;;;;;;7.50;4.85;;;;;;;10.38;100.00;101320.53;5025955;28;20565;-84
2021/11/19 05:37:05;;;;;;;6.75;5.00;;;;;;;10.35;100.00;101312.66;5006601;28;20095;-84
2021/11/19 05:39:31;;;;;;;7.03;4.82;;;;;;;10.32;100.00;101325.88;5031711;28;20553;-84
2021/11/19 05:41:58;;;;;;;6.25;4.68;;;;;;;10.35;100.00;101320.59;5001016;28;20517;-84
2021/11/19 05:44:26;;;;;;;7.25;4.80;;;;;;;10.38;100.00;101323.19;4996619;28;20062;-84
2021/11/19 05:46:53;;;;;;;5.60;4.53;;;;;;;10.42;100.00;101323.16;5014499;28;20045;-85
2021/11/19 05:49:22;;;;;;;7.65;4.07;;;;;;;10.44;100.00;101325.78;5012659;28;20038;-84
2021/11/19 05:51:50;;;;;;;5.53;3.60;;;;;;;10.46;100.00;101317.84;5030690;28;20057;-84
2021/11/19 05:54:20;;;;;;;7.00;4.47;;;;;;;10.47;100.00;101316.94;5007204;28;20075;-84
2021/11/19 05:56:47;;;;;;;5.43;3.47;;;;;;;10.48;100.00;101314.28;5015324;28;20476;-85
2021/11/19 05:59:13;;;;;;;6.03;4.25;;;;;;;10.49;100.00;101316.03;4998194;28;20049;-83
2021/11/19 06:01:40;;;;;;;5.63;4.25;;;;;;;10.43;100.00;101318.75;5045430;28;20049;-83
2021/11/19 06:04:07;;;;;;;6.60;4.72;;;;;;;10.49;100.00;101316.03;5016480;28;20040;-85
2021/11/19 06:06:34;;;;;;;6.95;4.43;;;;;;;10.52;100.00;101325.72;4990264;28;20500;-84
2021/11/19 06:09:01;;;;;;;6.53;4.15;;;;;;;10.55;100.00;101318.63;5026792;28;20041;-84
2021/11/19 06:11:32;;;;;;;5.70;4.45;;;;;;;10.53;100.00;101316.88;5032934;28;20049;-82
2021/11/19 06:14:05;;;;;;;6.15;4.15;;;;;;;10.54;100.00;101323.91;5016219;28;20049;-83
2021/11/19 06:16:36;;;;;;;6.80;4.15;;;;;;;10.48;100.00;101314.28;5033604;28;20037;-83
2021/11/19 06:19:08;;;;;;;5.28;4.07;;;;;;;10.55;100.00;101318.63;5004589;28;20454;-83
2021/11/19 06:21:42;;;;;;;6.32;4.15;;;;;;;10.62;100.00;101322.06;4996506;28;20041;-83
2021/11/19 06:24:10;;;;;;;;;;;;;;;10.55;100.00;101326.53;4992365;28;20178;-83
2021/11/19 06:26:39;;;;;;;5.20;3.67;;;;;;;10.59;100.00;101317.69;5026739;28;19926;-83
2021/11/19 06:29:06;;;;;;;5.45;4.05;;;;;;;10.62;100.00;101328.25;5028680;28;20096;-84
2021/11/19 06:31:36;;;;;;;6.93;4.38;;;;;;;10.65;100.00;101328.19;4997356;28;20045;-84
2021/11/19 06:34:03;;;;;;;5.88;3.92;;;;;;;10.64;100.00;101323.81;4996117;28;20049;-84
2021/11/19 06:36:31;;;;;;;5.85;3.90;;;;;;;10.60;100.00;101330.03;5013035;28;20041;-83
2021/11/19 06:39:16;;;;;;;6.03;3.90;;;;;;;10.67;100.00;101331.69;4998643;28;20052;-85
2021/11/19 06:41:44;;;;;;;5.30;3.85;;;;;;;10.66;100.00;101329.06;4997578;28;20050;-83
2021/11/19 06:44:11;;;;;;;6.43;3.95;;;;;;;10.71;100.00;101329.91;4995906;28;20092;-83
2021/11/19 06:46:38;;;;;;;5.93;4.53;;;;;;;10.69;100.00;101340.50;5013728;28;20502;-83
2021/11/19 06:49:06;;;;;;;6.78;3.90;;;;;;;10.70;100.00;101318.47;4992256;28;20611;-83
2021/11/19 06:51:33;;;;;;;6.20;3.90;;;;;;;10.77;100.00;101324.56;4994484;28;20042;-85
2021/11/19 06:54:00;;;;;;;5.60;3.70;;;;;;;10.77;100.00;101326.34;4977448;28;20446;-85
2021/11/19 06:56:27;;;;;;;8.32;4.45;;;;;;;10.79;100.00;101325.41;4971775;28;20041;-82
2021/11/19 06:58:54;;;;;;;5.90;4.28;;;;;;;10.80;100.00;101331.59;4994751;28;20556;-83
2021/11/19 07:01:20;;;;;;;6.13;4.55;;;;;;;10.79;100.00;101333.34;4996636;28;20049;-83
2021/11/19 07:03:47;;;;;;;6.38;4.22;;;;;;;10.84;100.00;101338.56;4995153;28;20049;-84
2021/11/19 07:06:14;;;;;;;7.53;3.92;;;;;;;10.84;100.00;101338.56;5012991;28;20041;-83
2021/11/19 07:08:41;;;;;;;5.75;4.00;;;;;;;10.82;100.00;101337.72;4995375;28;20057;-83
2021/11/19 07:11:12;;;;;;;6.03;3.78;;;;;;;10.86;100.00;101353.53;5012287;28;20061;-82
2021/11/19 07:13:40;;;;;;;5.07;3.83;;;;;;;10.91;100.00;101361.41;4979564;28;20076;-82
2021/11/19 07:16:07;;;;;;;6.38;3.95;;;;;;;10.88;100.00;101377.31;4984355;28;20045;-83
2021/11/19 07:18:34;;;;;;;5.20;3.53;;;;;;;10.87;100.00;101381.72;5014636;28;20099;-83
2021/11/19 07:21:02;;;;;;;5.43;3.50;;;;;;;10.86;100.00;101381.75;5016719;28;20132;-83
2021/11/19 07:23:29;;;;;;;5.50;3.92;;;;;;;10.87;100.00;101389.66;5096088;23;20052;-81
2021/11/19 07:25:56;;;;;;;6.90;3.55;;;;;;;10.84;100.00;101376.44;5030397;28;20048;-80
2021/11/19 07:28:26;;;;;;;7.00;4.05;;;;;;;10.86;100.00;101379.09;5038542;28;20049;-80
2021/11/19 07:30:56;;;;;;;5.50;3.85;;;;;;;10.90;100.00;101388.75;5025833;28;20045;-80
2021/11/19 07:33:25;;;;;;;6.07;4.15;;;;;;;10.86;100.00;101385.25;5013212;28;20109;-81
2021/11/19 07:35:52;;;;;;;8.30;4.07;;;;;;;10.90;100.00;101380.81;5027309;28;20037;-80
2021/11/19 07:38:21;;;;;;;7.07;3.78;;;;;;;10.93;100.00;101402.81;5010908;28;20536;-81
2021/11/19 07:40:49;;;;;;;5.20;4.03;;;;;;;10.92;100.00;101397.53;5011055;28;20152;-80
2021/11/19 07:43:18;;;;;;;6.38;3.65;;;;;;;10.94;100.00;101406.34;5042289;28;20060;-80
2021/11/19 07:45:45;;;;;;;7.63;3.70;;;;;;;10.91;100.00;101404.59;5042792;28;20041;-81
2021/11/19 07:48:14;;;;;;;6.90;3.67;;;;;;;10.93;100.00;101407.19;5059524;28;20100;-81
2021/11/19 07:50:44;;;;;;;5.13;4.25;;;;;;;10.98;100.00;101414.22;5024438;28;20656;-80
2021/11/19 07:53:11;;;;;;;6.93;3.97;;;;;;;10.92;100.00;101408.09;5060557;28;20452;-79
2021/11/19 07:55:38;;;;;;;7.38;4.63;;;;;;;10.95;100.00;101401.03;5026407;28;20041;-81
2021/11/19 07:58:05;;;;;;;6.05;3.60;;;;;;;10.94;100.00;101409.00;5020769;28;20189;-82
2021/11/19 08:00:34;;;;;;;7.13;3.75;;;;;;;11.08;100.00;101408.81;5016103;28;20041;-81
2021/11/19 08:03:02;;;;;;;3.92;2.90;;;;;;;10.98;100.00;101408.03;5038250;28;20644;-80
2021/11/19 08:05:28;;;;;;;6.57;5.18;;;;;;;10.96;100.00;101412.47;5042598;28;20037;-79
2021/11/19 08:07:55;;;;;;;30.23;19.42;;;;;;;11.05;100.00;101401.81;5027775;28;20037;-81
2021/11/19 08:10:22;;;;;;;7.00;4.72;;;;;;;11.06;100.00;101405.31;5007973;28;20036;-81
2021/11/19 08:12:49;;;;;;;6.03;5.18;;;;;;;11.05;100.00;101404.44;5021714;28;20045;-78
2021/11/19 08:15:19;;;;;;;7.03;4.32;;;;;;;11.10;100.00;101410.59;5020419;28;20045;-80
2021/11/19 08:17:52;;;;;;;6.03;3.65;;;;;;;11.05;100.00;101407.09;5051407;28;20060;-80
2021/11/19 08:20:22;;;;;;;6.35;4.25;;;;;;;11.16;100.00;101409.63;5024398;28;20063;-82
2021/11/19 08:22:50;;;;;;;6.50;4.28;;;;;;;11.17;100.00;101409.59;4998336;28;20060;-82
2021/11/19 08:25:17;;;;;;;5.63;3.88;;;;;;;11.17;100.00;101395.50;5035408;28;20429;-80
2021/11/19 08:27:52;;;;;;;4.15;3.03;;;;;;;11.11;100.00;101401.75;5008678;23;20549;-82
2021/11/19 08:30:23;;;;;;;7.07;3.42;;;;;;;11.18;100.00;101399.88;5030862;28;20052;-80
2021/11/19 08:32:50;;;;;;;5.25;3.97;;;;;;;11.21;100.00;101400.75;5023814;28;20386;-80
2021/11/19 08:35:17;;;;;;;8.23;5.82;;;;;;;11.24;100.00;101395.41;5034573;28;20494;-80
2021/11/19 08:37:45;;;;;;;6.93;5.70;;;;;;;11.22;100.00;101393.69;5034981;28;20057;-81
2021/11/19 08:40:13;;;;;;;6.15;3.88;;;;;;;11.24;100.00;101390.13;5045318;28;20037;-80
2021/11/19 08:42:41;;;;;;;4.90;3.28;;;;;;;11.20;100.00;101393.72;5031497;28;20052;-80
2021/11/19 08:45:08;;;;;;;6.32;4.05;;;;;;;11.30;100.00;101396.25;5030625;28;20050;-80
2021/11/19 08:47:48;;;;;;;4.70;4.30;;;;;;;11.33;100.00;101388.25;5066186;28;20606;-80
2021/11/19 08:50:17;;;;;;;5.90;3.60;;;;;;;11.32;100.00;101383.88;5051923;28;20044;-80
2021/11/19 08:52:44;;;;;;;5.18;3.05;;;;;;;11.28;100.00;101388.34;5034348;28;20053;-80
2021/11/19 08:55:11;;;;;;;5.00;3.10;;;;;;;11.29;100.00;101395.38;5047299;28;20040;-80
2021/11/19 08:57:38;;;;;;;7.00;3.20;;;;;;;11.37;100.00;101390.00;5032529;28;20056;-81
2021/11/19 09:00:10;;;;;;;4.28;3.28;;;;;;;11.32;100.00;101394.44;5027807;28;20107;-80
2021/11/19 09:02:37;;;;;;;4.45;3.08;;;;;;;11.27;100.00;101397.16;5017548;28;20399;-81
2021/11/19 09:05:06;;;;;;;4.82;3.20;;;;;;;11.22;100.00;101406.91;5033813;28;20048;-81
2021/11/19 09:07:35;;;;;;;4.93;3.17;;;;;;;11.27;100.00;101403.34;5031596;28;20656;-80
2021/11/19 09:10:06;;;;;;;6.00;2.88;;;;;;;11.27;100.00;101400.69;5049398;28;20383;-80
2021/11/19 09:12:33;;;;;;;5.00;2.90;;;;;;;11.25;100.00;101410.38;5040436;28;20098;-80
2021/11/19 09:14:59;;;;;;;3.80;3.05;;;;;;;11.32;100.00;101405.03;5029832;28;20091;-81
2021/11/19 09:17:30;;;;;;;4.03;2.78;;;;;;;11.28;100.00;101409.50;5066054;28;20037;-81
2021/11/19 09:20:20;;;;;;;6.32;3.50;;;;;;;11.30;100.00;101412.13;5049056;28;20059;-81
2021/11/19 09:22:53;;;;;;;4.35;2.53;;;;;;;11.36;100.00;101406.78;5051211;28;20115;-81
2021/11/19 09:25:22;;;;;;;4.32;3.17;;;;;;;11.35;100.00;101410.28;5082339;28;20456;-81
2021/11/19 09:27:49;;;;;;;4.75;3.50;;;;;;;11.38;100.00;101405.84;5064105;28;20098;-81
2021/11/19 09:30:22;;;;;;;5.35;2.92;;;;;;;11.37;100.00;101411.16;5045198;28;20044;-81
2021/11/19 09:32:51;;;;;;;5.40;3.05;;;;;;;11.39;100.00;101409.38;5065390;28;20555;-82
2021/11/19 09:35:20;;;;;;;6.13;3.60;;;;;;;11.45;100.00;101409.31;5021608;28;20056;-81
2021/11/19 09:37:50;;;;;;;4.80;2.90;;;;;;;11.36;100.00;101418.22;5047896;28;20045;-80
2021/11/19 09:40:19;;;;;;;4.95;3.20;;;;;;;11.46;100.00;101411.91;5060286;28;20148;-81
2021/11/19 09:43:13;;;;;;;4.03;3.30;;;;;;;11.47;100.00;101418.09;5031914;28;20056;-81
2021/11/19 09:45:50;;;;;;;6.60;3.70;;;;;;;11.44;100.00;101424.31;5065293;28;20041;-80
2021/11/19 09:48:40;;;;;;;7.05;4.00;;;;;;;11.46;100.00;101429.56;5037685;28;20293;-80
2021/11/19 09:51:45;;;;;;;5.50;3.13;;;;;;;11.52;100.00;101418.91;5041602;28;20044;-80
2021/11/19 09:54:30;;;;;;;3.72;3.10;;;;;;;11.48;100.00;101411.91;5027619;28;20048;-82
2021/11/19 09:57:08;;;;;;;6.45;3.67;;;;;;;11.49;100.00;101422.47;5035556;28;20041;-81
2021/11/19 09:59:43;;;;;;;5.95;3.60;;;;;;;11.48;100.00;101418.06;5058337;28;20098;-82
2021/11/19 10:02:33;;;;;;;6.80;3.63;;;;;;;11.55;100.00;101421.50;5044233;28;20048;-81
2021/11/19 10:05:15;;;;;;;6.40;3.67;;;;;;;11.59;100.00;101423.22;5034634;28;20046;-81
2021/11/19 10:07:58;;;;;;;8.15;4.28;;;;;;;11.53;100.00;101416.25;5069113;28;20044;-81
2021/11/19 10:10:33;;;;;;;5.75;3.72;;;;;;;11.55;100.00;101422.38;5055411;28;20094;-81
2021/11/19 10:13:18;;;;;;;6.07;3.67;;;;;;;11.52;100.00;101426.84;5025940;28;20041;-81
2021/11/19 10:16:09;;;;;;;6.97;3.80;;;;;;;11.52;100.00;101425.09;5037991;28;20130;-81
2021/11/19 10:18:50;;;;;;;6.47;3.97;;;;;;;11.52;100.00;101419.78;5069801;28;20044;-81
2021/11/19 10:21:29;;;;;;;9.15;4.05;;;;;;;11.59;100.00;101404.69;5024394;28;20572;-81
2021/11/19 10:24:32;;;;;;;5.47;3.28;;;;;;;11.55;100.00;101403.88;5023242;28;20452;-81
2021/11/19 10:26:59;;;;;;;7.78;4.30;;;;;;;11.59;100.00;101398.53;5052813;28;20053;-81
2021/11/19 10:29:37;;;;;;;6.82;4.55;;;;;;;11.55;100.00;101403.00;5062923;28;20088;-81
2021/11/19 10:32:04;;;;;;;7.22;4.43;;;;;;;11.59;100.00;101414.41;5025088;28;20051;-82
2021/11/19 10:34:49;;;;;;;6.25;4.07;;;;;;;11.63;100.00;101416.13;5053965;28;20040;-81
2021/11/19 10:37:54;;;;;;;6.43;4.03;;;;;;;11.62;100.00;101411.75;5034340;28;20045;-81
2021/11/19 10:40:58;;;;;;;6.78;3.80;;;;;;;11.64;100.00;101413.47;5030293;28;20043;-82
2021/11/19 10:43:51;;;;;;;7.70;4.87;;;;;;;11.61;100.00;101405.56;5063460;28;20094;-81
2021/11/19 10:46:47;;;;;;;11.73;6.40;;;;;;;11.64;100.00;101402.00;5069059;28;20044;-81
2021/11/19 10:49:44;;;;;;;8.40;4.90;;;;;;;11.63;100.00;101395.84;5022420;28;20058;-81
2021/11/19 10:52:33;;;;;;;8.77;4.85;;;;;;;11.71;100.00;101396.59;5055521;28;20036;-82
2021/11/19 10:55:16;;;;;;;8.13;4.57;;;;;;;11.67;100.00;101400.19;5030533;28;20045;-80
2021/11/19 10:58:07;;;;;;;7.20;4.43;;;;;;;11.76;100.00;101399.19;5034829;28;20045;-81
2021/11/19 11:00:42;;;;;;;6.78;4.97;;;;;;;11.74;100.00;101393.91;5074448;28;20056;-82
2021/11/19 11:03:15;;;;;;;6.47;3.95;;;;;;;11.73;100.00;101391.28;5044854;28;20588;-81
2021/11/19 11:05:44;;;;;;;5.50;3.40;;;;;;;11.73;100.00;101383.34;5031789;28;20436;-82
2021/11/19 11:08:25;;;;;;;6.28;4.38;;;;;;;11.74;100.00;101387.75;5027387;28;20571;-80
2021/11/19 11:11:07;;;;;;;8.57;4.45;;;;;;;11.79;100.00;101388.56;5040496;28;20053;-80
2021/11/19 11:13:38;;;;;;;6.45;3.53;;;;;;;11.74;100.00;101377.16;5054787;28;20080;-81
2021/11/19 11:16:23;;;;;;;7.93;3.88;;;;;;;11.81;100.00;101379.72;5054050;28;20143;-80
2021/11/19 11:19:13;;;;;;;8.30;3.88;;;;;;;11.77;100.00;101372.72;5037800;28;20049;-81
2021/11/19 11:21:55;;;;;;;5.53;3.60;;;;;;;11.89;100.00;101384.03;5090614;28;20045;-81
2021/11/19 11:24:26;;;;;;;7.43;3.80;;;;;;;11.86;100.00;101381.44;5051509;28;20697;-81
2021/11/19 11:27:14;;;;;;;8.07;3.40;;;;;;;11.88;100.00;101390.25;5058364;28;20106;-81
2021/11/19 11:29:42;;;;;;;6.00;3.63;;;;;;;11.86;100.00;101387.63;5052096;28;20135;-81
2021/11/19 11:32:12;;;;;;;5.97;3.83;;;;;;;11.88;100.00;101390.25;5073338;28;20101;-81
2021/11/19 11:34:42;;;;;;;9.52;3.33;;;;;;;11.89;100.00;101376.09;5068624;28;20049;-82
2021/11/19 11:37:13;;;;;;;5.20;3.00;;;;;;;11.88;100.00;101375.22;5040082;28;20048;-81